Time;durP1;ratioP1;P1;durP2;ratioP2;P2;SDS_P1;SDS_P2;PMS_P1;PMS_P2;Temp;Humidity;BMP_temperature;BMP_pressure;BME280_temperature;BME280_humidity;BME280_pressure;Samples;Min_cycle;Max_cycle;Signal;HPM_P1;HPM_P2
2021/03/19 00:00:29;;;;;;;14.18;2.38;;;2.70;99.90;;;;;;5042432;28;20063;-88
2021/03/19 00:02:55;;;;;;;10.52;1.60;;;2.60;99.90;;;;;;5045149;28;20077;-87
2021/03/19 00:05:24;;;;;;;12.52;2.60;;;2.70;99.90;;;;;;5054345;28;20043;-88
2021/03/19 00:07:53;;;;;;;14.65;2.20;;;2.50;99.90;;;;;;5057304;28;20120;-87
2021/03/19 00:10:22;;;;;;;12.85;2.85;;;2.80;99.90;;;;;;5017229;28;20115;-89
2021/03/19 00:12:49;;;;;;;14.18;2.67;;;2.90;99.90;;;;;;5046142;28;20041;-87
2021/03/19 00:15:17;;;;;;;20.55;2.97;;;2.50;99.90;;;;;;5046731;28;20113;-89
2021/03/19 00:17:43;;;;;;;23.98;3.08;;;2.60;99.90;;;;;;5030154;28;20041;-87
2021/03/19 00:20:11;;;;;;;10.30;2.22;;;2.50;99.90;;;;;;5046991;28;20048;-87
2021/03/19 00:22:39;;;;;;;16.30;3.78;;;2.50;99.90;;;;;;5029243;28;20504;-87
2021/03/19 00:25:06;;;;;;;21.10;3.25;;;2.50;99.90;;;;;;5029376;28;20049;-87
2021/03/19 00:27:33;;;;;;;9.70;2.40;;;2.50;99.90;;;;;;5029206;28;20055;-87
2021/03/19 00:30:00;;;;;;;11.70;2.22;;;2.40;99.90;;;;;;5031410;28;20045;-88
2021/03/19 00:32:26;;;;;;;11.02;2.13;;;2.50;99.90;;;;;;5043289;28;20076;-88
2021/03/19 00:34:52;;;;;;;15.05;2.40;;;2.40;99.90;;;;;;5041976;28;20045;-88
2021/03/19 00:37:18;;;;;;;13.43;2.80;;;2.50;99.90;;;;;;5034652;28;20149;-87
2021/03/19 00:39:44;;;;;;;22.98;3.38;;;2.50;99.90;;;;;;5045755;28;20053;-89
2021/03/19 00:42:10;;;;;;;14.02;2.70;;;2.50;99.90;;;;;;5029963;28;20075;-89
2021/03/19 00:44:40;;;;;;;11.88;2.72;;;2.50;99.90;;;;;;5028356;28;20370;-88
2021/03/19 00:47:06;;;;;;;5.43;1.95;;;2.40;99.90;;;;;;5045975;28;20046;-89
2021/03/19 00:49:32;;;;;;;16.00;1.98;;;2.50;99.90;;;;;;5030913;28;20041;-88
2021/03/19 00:51:58;;;;;;;8.30;1.80;;;2.50;99.90;;;;;;5048711;28;20056;-88
2021/03/19 00:54:24;;;;;;;15.57;2.35;;;2.50;99.90;;;;;;5029493;28;20060;-88
2021/03/19 00:56:50;;;;;;;12.48;2.05;;;2.40;99.90;;;;;;5015261;28;20120;-88
2021/03/19 00:59:16;;;;;;;18.70;2.72;;;2.40;99.90;;;;;;5035076;28;20501;-87
2021/03/19 01:01:41;;;;;;;14.10;2.45;;;2.40;99.90;;;;;;5023221;28;20103;-88
2021/03/19 01:04:07;;;;;;;15.52;2.58;;;2.40;99.90;;;;;;5029767;28;20452;-87
2021/03/19 01:06:33;;;;;;;5.20;1.50;;;2.40;99.90;;;;;;5028370;28;20116;-88
2021/03/19 01:08:59;;;;;;;20.70;1.80;;;2.40;99.90;;;;;;5013386;28;20064;-88
2021/03/19 01:11:29;;;;;;;14.02;2.13;;;2.40;99.90;;;;;;5014540;28;20076;-88
2021/03/19 01:13:56;;;;;;;10.63;1.52;;;2.30;99.90;;;;;;5029440;28;20096;-88
2021/03/19 01:16:22;;;;;;;25.65;3.55;;;2.30;99.90;;;;;;5045665;28;20275;-88
2021/03/19 01:18:48;;;;;;;14.75;2.22;;;2.30;99.90;;;;;;5035248;28;20789;-88
2021/03/19 01:21:16;;;;;;;6.15;1.40;;;2.40;99.90;;;;;;5025291;28;20477;-88
2021/03/19 01:23:43;;;;;;;21.33;2.85;;;2.40;99.90;;;;;;5044903;28;20172;-89
2021/03/19 01:26:13;;;;;;;11.55;1.67;;;2.40;99.90;;;;;;5029117;28;20045;-89
2021/03/19 01:28:40;;;;;;;14.18;1.85;;;2.50;99.90;;;;;;5028029;28;20116;-87
2021/03/19 01:31:07;;;;;;;11.82;1.65;;;2.40;99.90;;;;;;5028698;28;20137;-88
2021/03/19 01:33:35;;;;;;;11.57;2.22;;;2.50;99.90;;;;;;5029416;28;20037;-87
2021/03/19 01:36:06;;;;;;;8.13;1.10;;;2.40;99.90;;;;;;5017673;28;20143;-88
2021/03/19 01:38:33;;;;;;;18.75;2.33;;;2.50;99.90;;;;;;5025776;28;20045;-88
2021/03/19 01:41:00;;;;;;;12.13;1.55;;;2.50;99.90;;;;;;5045436;28;20041;-89
2021/03/19 01:44:02;;;;;;;17.90;2.38;;;2.70;99.90;;;;;;5028069;28;20033;-88
2021/03/19 01:47:05;;;;;;;4.60;0.95;;;2.50;99.90;;;;;;5028450;28;20106;-90
2021/03/19 01:50:10;;;;;;;16.27;1.88;;;2.50;99.90;;;;;;5019789;28;20045;-88
2021/03/19 01:53:14;;;;;;;17.30;1.55;;;2.50;99.90;;;;;;5027742;28;20041;-87
2021/03/19 01:56:17;;;;;;;9.65;1.83;;;2.50;99.90;;;;;;5044338;28;20045;-87
2021/03/19 01:59:20;;;;;;;14.60;2.40;;;2.50;99.90;;;;;;5044105;28;20042;-87
2021/03/19 02:02:24;;;;;;;20.55;2.50;;;2.50;99.90;;;;;;5044371;28;20504;-87
2021/03/19 02:05:27;;;;;;;9.98;1.48;;;2.50;99.90;;;;;;5052015;28;20053;-88
2021/03/19 02:08:31;;;;;;;18.63;2.15;;;2.50;99.90;;;;;;5032747;28;20061;-88
2021/03/19 02:11:34;;;;;;;18.95;1.70;;;2.50;99.90;;;;;;5033015;28;20065;-88
2021/03/19 02:14:38;;;;;;;22.02;2.20;;;2.50;99.90;;;;;;5045031;28;20469;-88
2021/03/19 02:17:41;;;;;;;7.25;1.70;;;2.60;99.90;;;;;;5044834;28;20081;-88
2021/03/19 02:20:44;;;;;;;4.05;1.52;;;2.60;99.90;;;;;;5034580;28;20049;-88
2021/03/19 02:23:48;;;;;;;17.65;1.75;;;2.60;99.90;;;;;;5031830;28;20045;-89
2021/03/19 02:26:52;;;;;;;14.23;2.22;;;2.50;99.90;;;;;;5044963;28;20029;-89
2021/03/19 02:29:56;;;;;;;11.60;1.95;;;2.50;99.90;;;;;;5028300;28;20056;-88
2021/03/19 02:32:24;;;;;;;23.90;1.85;;;2.50;99.90;;;;;;5045241;28;20048;-88
2021/03/19 02:35:08;;;;;;;15.90;2.00;;;2.60;99.90;;;;;;5014961;28;20033;-89
2021/03/19 02:37:36;;;;;;;24.67;1.95;;;2.50;99.90;;;;;;5028831;28;20057;-90
2021/03/19 02:40:09;;;;;;;9.57;2.10;;;2.60;99.90;;;;;;5028576;28;20060;-89
2021/03/19 02:42:35;;;;;;;15.98;1.52;;;2.50;99.90;;;;;;5027613;28;20120;-89
2021/03/19 02:45:02;;;;;;;14.45;2.50;;;2.50;99.90;;;;;;5032917;28;20619;-88
2021/03/19 02:47:27;;;;;;;16.02;2.38;;;2.50;99.90;;;;;;5049878;28;20053;-88
2021/03/19 02:49:53;;;;;;;17.65;1.75;;;2.50;99.90;;;;;;5014883;28;20045;-88
2021/03/19 02:52:21;;;;;;;18.55;2.40;;;2.50;99.90;;;;;;5032070;28;20045;-88
2021/03/19 02:54:48;;;;;;;27.85;3.58;;;2.50;99.90;;;;;;5030455;28;20044;-87
2021/03/19 02:57:14;;;;;;;24.30;2.88;;;2.50;99.90;;;;;;5023301;28;20092;-88
2021/03/19 02:59:41;;;;;;;21.58;2.80;;;2.40;99.90;;;;;;5030391;28;20049;-88
2021/03/19 03:02:07;;;;;;;22.75;2.53;;;2.30;99.90;;;;;;5026461;28;20156;-88
2021/03/19 03:04:33;;;;;;;12.55;2.85;;;2.30;99.90;;;;;;5048887;28;20042;-89
2021/03/19 03:06:59;;;;;;;28.35;2.80;;;2.30;99.90;;;;;;5028350;28;20091;-88
2021/03/19 03:09:28;;;;;;;14.23;2.35;;;2.40;99.90;;;;;;5032286;28;20161;-87
2021/03/19 03:11:55;;;;;;;16.88;2.00;;;2.30;99.90;;;;;;5030937;28;20061;-87
2021/03/19 03:14:23;;;;;;;17.85;2.80;;;2.30;99.90;;;;;;5030980;28;20392;-87
2021/03/19 03:16:49;;;;;;;26.10;3.30;;;2.30;99.90;;;;;;5031088;28;20097;-88
2021/03/19 03:19:19;;;;;;;34.10;3.53;;;2.30;99.90;;;;;;5031556;28;20049;-88
2021/03/19 03:21:46;;;;;;;15.85;2.47;;;2.50;99.90;;;;;;5032224;28;20456;-88
2021/03/19 03:24:14;;;;;;;36.55;5.10;;;2.40;99.90;;;;;;5032629;28;20061;-87
2021/03/19 03:26:41;;;;;;;24.35;3.47;;;2.40;99.90;;;;;;5030936;28;20056;-88
2021/03/19 03:29:09;;;;;;;27.88;2.90;;;2.60;99.90;;;;;;5061529;28;20053;-88
2021/03/19 03:31:40;;;;;;;16.23;2.83;;;2.30;99.90;;;;;;5035454;28;20053;-90
2021/03/19 03:34:07;;;;;;;21.25;3.67;;;2.40;99.90;;;;;;5031174;28;20045;-89
2021/03/19 03:36:33;;;;;;;17.95;3.75;;;2.40;99.90;;;;;;5031202;28;20497;-88
2021/03/19 03:39:04;;;;;;;22.95;3.58;;;2.40;99.90;;;;;;5031856;28;20053;-88
2021/03/19 03:41:30;;;;;;;24.17;4.20;;;2.40;99.90;;;;;;5031459;28;20053;-88
2021/03/19 03:43:57;;;;;;;25.83;4.22;;;2.30;99.90;;;;;;5013994;28;20050;-88
2021/03/19 03:46:25;;;;;;;12.30;3.40;;;2.40;99.90;;;;;;5031163;28;20076;-88
2021/03/19 03:48:54;;;;;;;21.00;3.85;;;2.40;99.90;;;;;;5030111;28;20057;-88
2021/03/19 03:51:22;;;;;;;19.42;3.03;;;2.50;99.90;;;;;;5032092;28;20049;-89
2021/03/19 03:53:48;;;;;;;30.50;4.22;;;2.40;99.90;;;;;;5030492;28;20052;-88
2021/03/19 03:56:16;;;;;;;25.20;5.22;;;2.40;99.90;;;;;;5047623;28;20053;-88
2021/03/19 03:58:43;;;;;;;13.75;3.42;;;2.40;99.90;;;;;;5046689;28;20057;-89
2021/03/19 04:01:10;;;;;;;31.60;4.50;;;2.40;99.90;;;;;;5030450;28;20073;-88
2021/03/19 04:03:37;;;;;;;17.83;3.75;;;2.30;99.90;;;;;;5047056;28;20473;-88
2021/03/19 04:06:05;;;;;;;18.58;4.05;;;2.40;99.90;;;;;;5030152;28;20115;-87
2021/03/19 04:08:31;;;;;;;35.63;4.90;;;2.30;99.90;;;;;;5046893;28;20490;-88
2021/03/19 04:11:00;;;;;;;18.40;3.15;;;2.30;99.90;;;;;;5016373;28;20069;-90
2021/03/19 04:13:29;;;;;;;17.45;4.18;;;2.30;99.90;;;;;;5037698;28;20045;-89
2021/03/19 04:15:56;;;;;;;12.23;3.20;;;2.40;99.90;;;;;;5043368;28;20065;-88
2021/03/19 04:18:23;;;;;;;20.02;4.55;;;2.50;99.90;;;;;;5031904;28;20054;-89
2021/03/19 04:20:53;;;;;;;33.60;4.93;;;2.20;99.90;;;;;;5029913;28;20049;-88
2021/03/19 04:23:20;;;;;;;25.20;4.57;;;2.20;99.90;;;;;;5031910;28;20049;-91
2021/03/19 04:25:46;;;;;;;23.17;5.55;;;2.20;99.90;;;;;;5031382;28;20049;-89
2021/03/19 04:28:17;;;;;;;14.90;4.03;;;2.20;99.90;;;;;;5033202;28;20057;-88
2021/03/19 04:30:44;;;;;;;20.33;3.75;;;3.10;99.90;;;;;;5031173;28;20053;-90
2021/03/19 04:33:21;;;;;;;20.60;4.80;;;2.20;99.90;;;;;;5029300;28;20095;-90
2021/03/19 04:35:51;;;;;;;24.23;4.25;;;2.20;99.90;;;;;;5029894;28;20057;-89
2021/03/19 04:38:18;;;;;;;20.17;4.47;;;2.20;99.90;;;;;;5029957;28;20493;-89
2021/03/19 04:40:46;;;;;;;12.77;3.30;;;2.20;99.90;;;;;;5013199;28;20108;-90
2021/03/19 04:43:14;;;;;;;9.63;3.13;;;2.30;99.90;;;;;;5030164;28;20072;-90
2021/03/19 04:45:45;;;;;;;15.63;3.25;;;2.30;99.90;;;;;;5030474;28;20054;-90
2021/03/19 04:48:12;;;;;;;17.60;3.33;;;2.80;99.90;;;;;;5030164;28;20049;-89
2021/03/19 04:50:38;;;;;;;23.58;2.95;;;2.30;99.90;;;;;;5030119;28;20049;-90
2021/03/19 04:53:06;;;;;;;9.05;2.92;;;2.30;99.90;;;;;;5046267;28;20076;-91
2021/03/19 04:55:33;;;;;;;16.45;3.50;;;2.30;99.90;;;;;;5030956;28;20057;-90
2021/03/19 04:57:59;;;;;;;28.48;3.95;;;2.30;99.90;;;;;;5029952;28;20111;-90
2021/03/19 05:00:26;;;;;;;20.27;2.97;;;2.70;99.90;;;;;;5030318;28;20053;-89
2021/03/19 05:02:52;;;;;;;22.08;4.93;;;2.20;99.90;;;;;;5028986;28;20418;-89
2021/03/19 05:05:26;;;;;;;9.93;2.95;;;2.40;99.90;;;;;;5045758;28;20049;-90
2021/03/19 05:07:54;;;;;;;20.40;3.80;;;2.30;99.90;;;;;;5030323;28;20072;-89
2021/03/19 05:10:23;;;;;;;20.33;4.25;;;2.20;99.90;;;;;;5016078;28;20066;-90
2021/03/19 05:12:53;;;;;;;26.23;4.13;;;2.40;99.90;;;;;;5028355;28;20053;-90
2021/03/19 05:15:21;;;;;;;14.52;4.15;;;2.20;99.90;;;;;;5040073;28;20097;-90
2021/03/19 05:17:47;;;;;;;21.30;3.85;;;2.10;99.90;;;;;;5045668;28;20052;-90
2021/03/19 05:20:15;;;;;;;14.18;2.60;;;2.30;99.90;;;;;;5046332;28;20120;-90
2021/03/19 05:22:42;;;;;;;13.80;3.35;;;2.10;99.90;;;;;;5046133;28;20058;-90
2021/03/19 05:25:12;;;;;;;9.95;3.22;;;2.50;99.90;;;;;;5029695;28;20535;-87
2021/03/19 05:27:39;;;;;;;13.95;3.60;;;2.10;99.90;;;;;;5029571;28;20083;-88
2021/03/19 05:30:08;;;;;;;15.75;3.60;;;2.20;99.90;;;;;;5028442;28;20049;-88
2021/03/19 05:32:34;;;;;;;14.77;3.88;;;2.20;99.90;;;;;;5029114;28;20053;-90
2021/03/19 05:35:00;;;;;;;12.77;3.40;;;2.20;99.90;;;;;;5031354;28;20064;-89
2021/03/19 05:37:27;;;;;;;12.35;3.25;;;2.20;99.90;;;;;;5029410;28;20064;-89
2021/03/19 05:39:53;;;;;;;8.93;2.55;;;2.20;99.90;;;;;;5028531;28;20053;-90
2021/03/19 05:42:46;;;;;;;10.57;3.10;;;2.20;99.90;;;;;;5035897;28;20060;-89
2021/03/19 05:45:12;;;;;;;20.40;4.20;;;2.20;99.90;;;;;;5010888;28;20061;-89
2021/03/19 05:47:39;;;;;;;16.48;3.15;;;2.20;99.90;;;;;;5037583;28;20068;-90
2021/03/19 05:50:10;;;;;;;16.20;4.28;;;2.20;99.90;;;;;;5030612;28;20050;-90
2021/03/19 05:52:36;;;;;;;17.38;3.30;;;2.20;99.90;;;;;;5030026;28;20111;-91
2021/03/19 05:55:13;;;;;;;8.77;3.20;;;2.60;99.90;;;;;;5024955;28;20112;-88
2021/03/19 05:57:40;;;;;;;12.93;2.97;;;2.20;99.90;;;;;;5016344;28;20061;-89
2021/03/19 06:00:21;;;;;;;14.73;4.20;;;2.20;99.90;;;;;;5041375;28;20057;-89
2021/03/19 06:02:48;;;;;;;8.65;3.35;;;2.20;99.90;;;;;;5028824;28;20119;-89
2021/03/19 06:05:24;;;;;;;10.40;2.92;;;2.30;99.90;;;;;;5027359;28;20397;-89
2021/03/19 06:08:02;;;;;;;11.15;3.75;;;2.30;99.90;;;;;;5020878;28;20057;-89
2021/03/19 06:10:36;;;;;;;23.58;4.82;;;2.30;99.90;;;;;;5027492;28;20661;-89
2021/03/19 06:13:18;;;;;;;15.48;4.03;;;2.20;99.90;;;;;;5041271;28;20092;-88
2021/03/19 06:15:53;;;;;;;13.38;3.42;;;2.30;99.90;;;;;;5032515;28;20061;-88
2021/03/19 06:18:43;;;;;;;10.20;2.90;;;2.30;99.90;;;;;;5033299;28;20057;-89
2021/03/19 06:21:10;;;;;;;10.18;3.13;;;2.30;99.90;;;;;;5021610;28;20079;-89
2021/03/19 06:24:00;;;;;;;11.35;3.42;;;2.30;99.90;;;;;;5038651;28;20061;-90
2021/03/19 06:26:46;;;;;;;4.50;1.73;;;2.30;99.90;;;;;;5018040;28;20053;-90
2021/03/19 06:29:42;;;;;;;2.08;1.20;;;2.60;99.90;;;;;;5027086;28;20056;-91
2021/03/19 06:32:31;;;;;;;7.18;2.15;;;2.30;99.90;;;;;;5004072;28;20112;-89
2021/03/19 06:35:12;;;;;;;11.37;4.57;;;2.30;99.90;;;;;;5023732;28;20506;-89
2021/03/19 06:38:25;;;;;;;10.18;2.33;;;2.30;99.90;;;;;;5020148;28;20104;-88
2021/03/19 06:41:20;;;;;;;10.18;3.55;;;2.40;99.90;;;;;;5016724;28;20111;-89
2021/03/19 06:44:20;;;;;;;2.65;2.20;;;2.40;99.90;;;;;;5008338;28;20045;-89
2021/03/19 06:47:16;;;;;;;8.57;3.28;;;2.40;99.90;;;;;;5001608;28;20055;-89
2021/03/19 06:50:04;;;;;;;13.52;3.22;;;2.40;99.90;;;;;;5022429;28;20049;-89
2021/03/19 06:52:51;;;;;;;11.48;2.85;;;2.50;99.90;;;;;;5015693;28;20407;-89
2021/03/19 06:55:39;;;;;;;6.43;3.00;;;2.50;99.90;;;;;;5020618;28;20054;-89
2021/03/19 06:58:51;;;;;;;12.20;3.00;;;2.50;99.90;;;;;;5020243;28;20054;-89
2021/03/19 07:01:38;;;;;;;5.90;3.55;;;2.50;99.90;;;;;;5014554;28;20425;-89
2021/03/19 07:04:56;;;;;;;14.77;3.20;;;2.60;99.90;;;;;;5014349;28;20049;-89
2021/03/19 07:07:54;;;;;;;9.20;2.95;;;2.60;99.90;;;;;;5022256;28;20490;-89
2021/03/19 07:11:25;;;;;;;9.25;3.65;;;2.70;99.90;;;;;;5040607;28;20057;-89
2021/03/19 07:14:39;;;;;;;;;;;2.70;99.90;;;;;;5018031;28;20049;-88
2021/03/19 07:17:56;;;;;;;7.35;2.30;;;2.70;99.90;;;;;;5035421;28;19925;-89
2021/03/19 07:21:04;;;;;;;10.65;2.83;;;2.70;99.90;;;;;;5050996;28;20044;-89
2021/03/19 07:24:05;;;;;;;13.38;4.15;;;2.80;99.90;;;;;;5027594;28;20456;-89
2021/03/19 07:27:00;;;;;;;7.43;2.75;;;2.80;99.90;;;;;;5026491;28;20038;-89
2021/03/19 07:29:44;;;;;;;10.48;3.60;;;2.80;99.90;;;;;;5053135;28;20179;-88
2021/03/19 07:32:31;;;;;;;9.55;3.30;;;2.90;99.90;;;;;;5042400;28;20071;-89
2021/03/19 07:35:16;;;;;;;9.77;3.70;;;2.90;99.90;;;;;;5038518;28;20061;-90
2021/03/19 07:38:39;;;;;;;4.63;2.00;;;2.90;99.90;;;;;;5018537;28;20045;-91
2021/03/19 07:41:58;;;;;;;10.10;3.63;;;3.00;99.90;;;;;;5031236;28;20103;-89
2021/03/19 07:45:14;;;;;;;11.30;2.95;;;3.00;99.90;;;;;;5043405;28;20506;-91
2021/03/19 07:48:06;;;;;;;7.95;3.42;;;3.10;99.90;;;;;;5031218;28;20045;-90
2021/03/19 07:51:21;;;;;;;6.55;2.85;;;3.10;99.90;;;;;;5033294;28;20059;-90
2021/03/19 07:54:24;;;;;;;11.15;3.10;;;3.20;99.90;;;;;;5034988;28;20056;-90
2021/03/19 07:57:25;;;;;;;6.03;3.03;;;3.20;99.90;;;;;;5031123;28;20045;-90
2021/03/19 08:00:27;;;;;;;8.02;2.95;;;3.40;99.90;;;;;;5029484;28;20482;-90
2021/03/19 08:03:20;;;;;;;4.68;3.10;;;3.70;99.90;;;;;;5016343;28;20042;-88
2021/03/19 08:06:18;;;;;;;3.22;2.22;;;3.60;99.90;;;;;;5032386;28;20057;-88
2021/03/19 08:09:49;;;;;;;25.65;5.28;;;3.50;99.90;;;;;;5016855;28;20094;-88
2021/03/19 08:12:42;;;;;;;3.95;1.35;;;3.60;99.90;;;;;;5035042;28;20049;-87
2021/03/19 08:15:40;;;;;;;3.33;2.20;;;3.60;99.90;;;;;;5032297;28;20043;-87
2021/03/19 08:18:42;;;;;;;9.40;2.00;;;3.70;99.90;;;;;;5041131;28;20077;-87
2021/03/19 08:21:37;;;;;;;8.13;2.05;;;3.70;99.90;;;;;;5030467;28;20477;-87
2021/03/19 08:24:49;;;;;;;14.30;2.22;;;3.80;99.90;;;;;;5035188;28;20049;-88
2021/03/19 08:27:43;;;;;;;9.98;0.98;;;3.90;99.90;;;;;;5030367;28;20442;-87
2021/03/19 08:30:32;;;;;;;3.08;1.70;;;4.00;99.90;;;;;;5031392;28;20049;-88
2021/03/19 08:33:48;;;;;;;6.03;1.77;;;4.10;99.90;;;;;;5022407;28;20056;-88
2021/03/19 08:36:40;;;;;;;6.45;1.00;;;4.20;99.90;;;;;;5028709;28;20514;-88
2021/03/19 08:39:45;;;;;;;2.92;1.80;;;4.30;99.90;;;;;;5014584;28;20045;-88
2021/03/19 08:42:36;;;;;;;9.80;1.70;;;4.40;99.90;;;;;;5043155;28;20048;-88
2021/03/19 08:45:26;;;;;;;5.40;2.10;;;4.50;99.90;;;;;;5024855;28;20053;-89
2021/03/19 08:48:16;;;;;;;2.47;1.00;;;4.50;99.90;;;;;;5037782;28;20042;-88
2021/03/19 08:51:16;;;;;;;2.38;1.15;;;4.60;99.90;;;;;;5040022;28;20053;-88
2021/03/19 08:54:14;;;;;;;2.50;1.30;;;4.70;99.90;;;;;;5026793;28;20057;-89
2021/03/19 08:57:03;;;;;;;4.05;1.80;;;4.70;99.90;;;;;;5042678;28;20049;-89
2021/03/19 08:59:50;;;;;;;1.50;1.20;;;4.70;99.90;;;;;;5026062;28;20049;-89
2021/03/19 09:02:56;;;;;;;6.88;1.98;;;4.80;99.90;;;;;;5040666;28;20500;-89
2021/03/19 09:06:06;;;;;;;2.90;1.40;;;4.90;99.90;;;;;;5035566;28;20091;-89
2021/03/19 09:09:00;;;;;;;3.80;1.70;;;5.00;99.90;;;;;;5041302;28;20072;-89
2021/03/19 09:11:52;;;;;;;0.98;0.82;;;5.10;99.90;;;;;;5012979;28;20132;-89
2021/03/19 09:14:37;;;;;;;2.13;1.58;;;5.20;99.90;;;;;;5027760;28;20445;-89
2021/03/19 09:17:03;;;;;;;2.92;1.58;;;5.30;99.90;;;;;;5009473;28;20108;-88
2021/03/19 09:19:59;;;;;;;6.03;1.95;;;5.30;99.90;;;;;;5017902;28;20106;-88
2021/03/19 09:22:45;;;;;;;1.42;1.20;;;5.50;99.90;;;;;;5038450;28;20041;-88
2021/03/19 09:25:41;;;;;;;4.43;1.83;;;5.50;99.90;;;;;;5030843;28;20049;-87
2021/03/19 09:28:16;;;;;;;2.35;1.30;;;5.60;99.90;;;;;;5049636;28;20048;-88
2021/03/19 09:31:22;;;;;;;1.23;1.05;;;5.70;99.90;;;;;;5028625;28;20827;-88
2021/03/19 09:34:15;;;;;;;0.80;0.80;;;5.80;99.90;;;;;;5020504;28;20050;-87
2021/03/19 09:37:28;;;;;;;1.60;0.82;;;5.90;99.90;;;;;;5027293;28;20061;-88
2021/03/19 09:40:36;;;;;;;6.65;1.70;;;6.00;99.90;;;;;;5023540;28;20054;-89
2021/03/19 09:43:02;;;;;;;1.48;1.20;;;6.00;99.90;;;;;;5057087;28;20059;-88
2021/03/19 09:45:32;;;;;;;0.77;0.77;;;6.10;99.90;;;;;;5057927;28;20053;-89
2021/03/19 09:48:16;;;;;;;4.18;0.90;;;6.20;99.90;;;;;;5054925;28;20037;-88
2021/03/19 09:50:58;;;;;;;4.93;0.90;;;6.20;99.90;;;;;;5058067;28;20037;-92
2021/03/19 09:53:28;;;;;;;0.90;0.90;;;6.20;99.90;;;;;;5046039;28;20045;-90
2021/03/19 09:55:57;;;;;;;2.38;1.00;;;6.20;99.90;;;;;;5018896;28;20485;-91
2021/03/19 09:58:29;;;;;;;1.30;1.20;;;6.30;99.90;;;;;;5028709;28;20049;-90
2021/03/19 10:01:32;;;;;;;3.88;1.48;;;6.40;99.90;;;;;;5032640;28;20671;-90
2021/03/19 10:04:04;;;;;;;3.95;1.20;;;6.40;99.90;;;;;;5037823;28;20053;-90
2021/03/19 10:06:50;;;;;;;2.22;1.30;;;6.40;99.90;;;;;;5034172;28;20042;-91
2021/03/19 10:09:57;;;;;;;2.05;1.23;;;6.40;99.90;;;;;;5008422;28;20485;-90
2021/03/19 10:12:42;;;;;;;1.73;1.10;;;6.30;99.90;;;;;;5011572;28;20048;-90
2021/03/19 10:15:28;;;;;;;0.35;0.35;;;6.30;99.90;;;;;;5007998;28;20406;-90
2021/03/19 10:18:35;;;;;;;0.30;0.30;;;6.30;99.90;;;;;;4998630;28;20128;-89
2021/03/19 10:21:23;;;;;;;5.32;0.93;;;6.30;99.90;;;;;;5023380;28;20046;-90
2021/03/19 10:24:09;;;;;;;1.95;0.73;;;6.40;99.90;;;;;;5022385;28;20046;-89
2021/03/19 10:26:54;;;;;;;3.03;0.77;;;6.40;99.90;;;;;;5034854;28;20036;-90
2021/03/19 10:29:25;;;;;;;1.05;0.43;;;6.40;99.90;;;;;;5027685;28;20057;-90
2021/03/19 10:32:01;;;;;;;1.15;0.60;;;6.50;99.90;;;;;;5036677;28;20050;-88
2021/03/19 10:35:01;;;;;;;0.70;0.40;;;6.60;99.90;;;;;;5024334;28;20050;-89
2021/03/19 10:37:57;;;;;;;4.60;0.97;;;6.60;99.90;;;;;;5008382;28;20045;-90
2021/03/19 10:40:29;;;;;;;1.58;0.70;;;6.60;99.90;;;;;;5032522;28;20771;-90
2021/03/19 10:43:32;;;;;;;0.43;0.40;;;6.70;99.90;;;;;;5012079;28;20049;-90
2021/03/19 10:46:24;;;;;;;1.67;0.60;;;6.70;99.90;;;;;;5027406;28;20049;-89
2021/03/19 10:48:57;;;;;;;2.50;0.65;;;6.80;99.90;;;;;;5022067;28;20527;-90
2021/03/19 10:51:52;;;;;;;2.67;0.45;;;6.70;99.90;;;;;;5026895;28;20041;-89
2021/03/19 10:54:38;;;;;;;0.30;0.28;;;6.80;99.90;;;;;;5027668;28;20049;-90
2021/03/19 10:57:25;;;;;;;0.30;0.30;;;6.70;99.90;;;;;;5027752;28;20140;-89
2021/03/19 10:59:54;;;;;;;1.10;0.60;;;6.80;99.90;;;;;;5027850;28;20056;-89
2021/03/19 11:02:20;;;;;;;1.08;0.35;;;6.90;99.90;;;;;;5037358;28;20049;-89
2021/03/19 11:05:08;;;;;;;2.22;0.95;;;7.00;99.90;;;;;;5026984;28;20033;-89
2021/03/19 11:07:37;;;;;;;1.67;0.80;;;7.10;99.90;;;;;;5026902;28;20065;-89
2021/03/19 11:10:21;;;;;;;4.63;0.90;;;7.10;99.90;;;;;;5036835;28;20065;-89
2021/03/19 11:12:57;;;;;;;5.38;0.80;;;7.10;99.90;;;;;;5045411;28;20481;-90
2021/03/19 11:15:29;;;;;;;4.03;0.77;;;7.10;99.90;;;;;;5030902;28;20061;-90
2021/03/19 11:18:25;;;;;;;0.55;0.52;;;7.20;99.90;;;;;;5047544;28;20080;-89
2021/03/19 11:21:01;;;;;;;0.70;0.50;;;7.40;99.90;;;;;;5030591;28;20042;-88
2021/03/19 11:23:48;;;;;;;10.48;0.57;;;7.60;99.90;;;;;;5038426;28;20478;-89
2021/03/19 11:26:29;;;;;;;2.42;0.70;;;7.60;99.90;;;;;;5025199;28;20418;-90
2021/03/19 11:29:18;;;;;;;4.13;0.40;;;7.50;99.90;;;;;;5026019;28;20402;-89
2021/03/19 11:32:13;;;;;;;2.72;0.40;;;7.50;99.90;;;;;;5046845;28;20521;-89
2021/03/19 11:34:48;;;;;;;10.88;0.98;;;7.40;99.90;;;;;;5021306;28;20057;-89
2021/03/19 11:37:33;;;;;;;11.07;1.15;;;7.40;99.90;;;;;;5030092;28;20056;-88
2021/03/19 11:40:25;;;;;;;2.25;0.20;;;7.40;99.90;;;;;;5043355;28;20459;-90
2021/03/19 11:42:54;;;;;;;7.80;0.52;;;7.40;99.90;;;;;;5031034;28;20146;-90
2021/03/19 11:45:33;;;;;;;2.17;0.65;;;7.40;99.90;;;;;;5030415;28;20041;-89
2021/03/19 11:48:00;;;;;;;6.50;0.70;;;7.40;99.90;;;;;;5030439;28;20050;-89
2021/03/19 11:50:34;;;;;;;2.10;0.40;;;7.30;99.90;;;;;;5031481;28;20465;-89
2021/03/19 11:53:20;;;;;;;9.13;0.60;;;7.20;99.90;;;;;;5029792;28;20073;-89
2021/03/19 11:56:06;;;;;;;4.03;1.73;;;7.20;99.90;;;;;;5030319;28;20404;-89
2021/03/19 11:58:33;;;;;;;7.00;0.70;;;7.20;99.90;;;;;;5032452;28;20192;-90
2021/03/19 12:01:01;;;;;;;5.55;1.15;;;7.30;99.90;;;;;;5036536;28;21056;-88
2021/03/19 12:03:49;;;;;;;4.78;1.13;;;7.10;99.90;;;;;;5027780;28;20119;-89
2021/03/19 12:06:20;;;;;;;10.57;0.65;;;7.00;99.90;;;;;;5029795;28;20478;-89
2021/03/19 12:08:46;;;;;;;34.72;1.17;;;6.90;99.90;;;;;;5033244;28;20036;-90
2021/03/19 12:11:26;;;;;;;7.07;1.30;;;6.80;99.90;;;;;;5011258;28;20078;-90
2021/03/19 12:13:53;;;;;;;6.30;0.60;;;6.70;99.90;;;;;;5039639;28;20625;-90
2021/03/19 12:16:19;;;;;;;7.07;0.80;;;6.70;99.90;;;;;;5040690;28;20038;-89
2021/03/19 12:18:46;;;;;;;5.63;0.73;;;6.70;99.90;;;;;;5045716;28;20050;-89
2021/03/19 12:21:31;;;;;;;8.40;0.52;;;6.80;99.90;;;;;;5022808;28;20038;-89
2021/03/19 12:23:57;;;;;;;2.42;0.20;;;6.80;99.90;;;;;;5022371;28;20112;-88
2021/03/19 12:26:23;;;;;;;4.03;0.52;;;6.80;99.90;;;;;;5046263;28;20053;-90
2021/03/19 12:28:49;;;;;;;6.13;0.70;;;6.90;99.90;;;;;;5029333;28;20033;-89
2021/03/19 12:31:15;;;;;;;19.00;0.50;;;6.90;99.90;;;;;;5046260;28;20113;-90
2021/03/19 12:34:01;;;;;;;1.65;0.32;;;6.90;99.90;;;;;;5010339;28;20057;-89
2021/03/19 12:36:27;;;;;;;0.10;0.10;;;6.90;99.90;;;;;;5027373;28;20796;-90
2021/03/19 12:38:53;;;;;;;1.02;0.17;;;7.00;99.90;;;;;;5012120;28;20057;-89
2021/03/19 12:41:22;;;;;;;0.20;0.20;;;7.00;99.90;;;;;;5045571;28;20087;-90
2021/03/19 12:43:48;;;;;;;2.30;0.35;;;7.10;99.90;;;;;;5012588;28;20543;-89
2021/03/19 12:46:14;;;;;;;0.75;0.20;;;7.00;99.90;;;;;;5029551;28;20413;-89
2021/03/19 12:49:00;;;;;;;5.05;0.38;;;7.10;99.90;;;;;;5009450;28;20042;-89
2021/03/19 12:51:45;;;;;;;0.45;0.20;;;7.20;99.90;;;;;;5026805;28;20615;-90
2021/03/19 12:54:12;;;;;;;1.30;0.40;;;7.20;99.90;;;;;;5013106;28;20136;-89
2021/03/19 12:56:58;;;;;;;2.50;0.40;;;7.20;99.90;;;;;;5028670;28;20072;-88
2021/03/19 12:59:24;;;;;;;3.85;0.38;;;7.20;99.90;;;;;;5029598;28;20081;-89
2021/03/19 13:01:50;;;;;;;2.53;0.35;;;7.20;99.90;;;;;;5011650;28;20049;-90
2021/03/19 13:04:16;;;;;;;1.27;0.20;;;7.20;99.90;;;;;;5029132;28;20047;-89
2021/03/19 13:06:42;;;;;;;3.70;0.43;;;7.30;99.90;;;;;;5029623;28;20397;-89
2021/03/19 13:09:28;;;;;;;3.10;0.50;;;7.20;99.90;;;;;;5023906;28;20052;-89
2021/03/19 13:11:54;;;;;;;5.40;0.45;;;7.30;99.90;;;;;;5019972;28;20167;-88
2021/03/19 13:14:43;;;;;;;6.28;0.63;;;7.40;99.90;;;;;;5028432;28;20064;-90
2021/03/19 13:17:28;;;;;;;4.47;0.63;;;7.30;99.90;;;;;;5011223;28;20054;-89
2021/03/19 13:20:16;;;;;;;9.82;0.50;;;7.30;99.90;;;;;;5015446;28;20055;-90
2021/03/19 13:22:43;;;;;;;6.53;0.20;;;7.30;99.90;;;;;;5029319;28;20060;-89
2021/03/19 13:25:13;;;;;;;7.55;0.82;;;7.40;99.90;;;;;;5012177;28;20628;-88
2021/03/19 13:27:40;;;;;;;6.78;0.47;;;7.40;99.90;;;;;;5045131;28;20045;-89
2021/03/19 13:30:09;;;;;;;8.07;0.90;;;7.40;99.90;;;;;;5028468;28;20556;-89
2021/03/19 13:32:37;;;;;;;6.50;0.87;;;7.40;99.90;;;;;;5028119;28;20057;-89
2021/03/19 13:35:04;;;;;;;8.80;1.00;;;7.40;99.90;;;;;;5014271;28;20298;-89
2021/03/19 13:37:50;;;;;;;1.20;0.40;;;7.40;99.90;;;;;;5027915;28;20054;-89
2021/03/19 13:40:44;;;;;;;5.28;0.63;;;7.30;99.90;;;;;;5015020;28;20045;-89
2021/03/19 13:43:16;;;;;;;10.38;0.93;;;7.30;99.90;;;;;;5044663;28;20068;-89
2021/03/19 13:45:42;;;;;;;20.15;1.30;;;7.30;99.90;;;;;;5008127;28;20391;-89
2021/03/19 13:48:09;;;;;;;7.45;1.10;;;7.20;99.90;;;;;;5027886;28;20041;-89
2021/03/19 13:50:35;;;;;;;7.22;0.88;;;7.30;99.90;;;;;;5029533;28;20044;-90
2021/03/19 13:53:01;;;;;;;2.20;0.63;;;7.40;99.90;;;;;;5027481;28;20067;-89
2021/03/19 13:55:28;;;;;;;8.25;0.90;;;7.40;99.90;;;;;;5028062;28;20037;-89